Time;durP1;ratioP1;P1;durP2;ratioP2;P2;SDS_P1;SDS_P2;PMS_P1;PMS_P2;Temp;Humidity;BMP_temperature;BMP_pressure;BME280_temperature;BME280_humidity;BME280_pressure;Samples;Min_cycle;Max_cycle;Signal;HPM_P1;HPM_P2
2021/07/19 00:03:30;;;;;;;5.60;3.58;;;23.40;68.60;;;;;;10461771;28;20072;-60
2021/07/19 00:08:30;;;;;;;3.53;2.92;;;23.40;68.50;;;;;;10461310;28;20025;-61
2021/07/19 00:13:32;;;;;;;3.75;2.55;;;23.40;68.50;;;;;;10461316;28;20060;-60
2021/07/19 00:18:33;;;;;;;3.80;3.20;;;23.40;68.50;;;;;;10461256;28;20069;-60
2021/07/19 00:23:34;;;;;;;6.20;3.75;;;23.40;68.40;;;;;;10466693;28;20163;-61
2021/07/19 00:28:35;;;;;;;4.13;3.50;;;23.40;68.50;;;;;;10460549;28;20151;-61
2021/07/19 00:33:36;;;;;;;4.30;3.33;;;23.40;68.40;;;;;;10460539;28;20056;-61
2021/07/19 00:38:37;;;;;;;4.93;2.90;;;23.40;68.50;;;;;;10459928;28;20041;-61
2021/07/19 00:43:38;;;;;;;4.10;3.15;;;23.40;68.30;;;;;;10460062;28;20029;-61
2021/07/19 00:48:38;;;;;;;4.30;3.05;;;23.40;68.00;;;;;;10459740;28;20029;-61
2021/07/19 00:53:39;;;;;;;3.83;2.80;;;23.40;68.10;;;;;;10459694;28;20037;-61
2021/07/19 00:58:41;;;;;;;4.22;3.22;;;23.30;68.00;;;;;;10458658;28;20147;-61
2021/07/19 01:03:43;;;;;;;4.38;3.20;;;23.30;67.90;;;;;;10459351;28;20044;-61
2021/07/19 01:08:44;;;;;;;4.55;3.17;;;23.30;67.80;;;;;;10458701;28;20025;-61
2021/07/19 01:13:45;;;;;;;3.60;3.03;;;23.30;67.90;;;;;;10458850;28;20351;-61
2021/07/19 01:18:46;;;;;;;4.57;3.65;;;23.30;67.90;;;;;;10458752;28;20047;-61
2021/07/19 01:24:38;;;;;;;4.28;3.38;;;23.40;68.50;;;;;;10465546;28;20029;-61
2021/07/19 01:29:39;;;;;;;4.93;3.20;;;23.40;68.40;;;;;;10458260;28;20059;-61
2021/07/19 01:34:42;;;;;;;5.80;3.60;;;23.40;69.00;;;;;;10440600;28;20037;-61
2021/07/19 01:39:44;;;;;;;3.95;3.20;;;23.40;69.00;;;;;;10443297;28;20044;-61
2021/07/19 01:44:46;;;;;;;4.30;3.58;;;23.40;69.00;;;;;;10440229;28;20029;-61
2021/07/19 01:49:47;;;;;;;4.65;3.15;;;23.40;68.70;;;;;;10440336;28;20036;-61
2021/07/19 01:54:48;;;;;;;4.47;2.80;;;23.40;68.80;;;;;;10440142;28;20383;-61
2021/07/19 01:59:50;;;;;;;4.18;3.47;;;23.40;69.10;;;;;;10441241;28;20036;-60
2021/07/19 02:04:51;;;;;;;4.03;2.95;;;23.40;69.10;;;;;;10444327;28;20021;-61
2021/07/19 02:09:52;;;;;;;4.30;3.00;;;23.30;69.40;;;;;;10439228;28;20068;-61
2021/07/19 02:14:54;;;;;;;4.10;3.35;;;23.30;69.40;;;;;;10455951;28;20025;-61
2021/07/19 02:19:55;;;;;;;5.53;3.60;;;23.30;69.80;;;;;;10448249;28;20497;-61
2021/07/19 02:24:55;;;;;;;4.28;3.53;;;23.30;69.40;;;;;;10454899;28;20053;-62
2021/07/19 02:29:57;;;;;;;5.00;3.35;;;23.30;69.20;;;;;;10437266;28;20427;-61
2021/07/19 02:34:58;;;;;;;3.55;3.00;;;23.30;69.00;;;;;;10438250;28;20059;-61
2021/07/19 02:39:59;;;;;;;4.15;2.92;;;23.30;68.90;;;;;;10438298;28;20068;-61
2021/07/19 02:45:00;;;;;;;4.13;3.33;;;23.30;68.90;;;;;;10438099;28;20041;-61
2021/07/19 02:50:03;;;;;;;4.25;3.47;;;23.20;68.60;;;;;;10443715;28;20032;-61
2021/07/19 02:55:06;;;;;;;3.85;3.13;;;23.30;68.30;;;;;;10437991;28;20036;-61
2021/07/19 03:00:14;;;;;;;5.05;3.30;;;23.30;68.00;;;;;;10437980;28;20473;-61
2021/07/19 03:05:19;;;;;;;4.38;2.92;;;23.30;68.20;;;;;;10455142;28;20087;-61
2021/07/19 03:10:22;;;;;;;4.07;2.63;;;23.20;68.20;;;;;;10422716;28;20740;-60
2021/07/19 03:15:28;;;;;;;4.13;3.25;;;23.20;68.00;;;;;;10454076;28;20059;-60
2021/07/19 03:20:30;;;;;;;4.65;2.80;;;23.20;67.70;;;;;;10446447;28;20094;-60
2021/07/19 03:25:32;;;;;;;4.22;3.60;;;23.20;67.60;;;;;;10443271;28;20043;-61
2021/07/19 03:30:34;;;;;;;3.92;3.40;;;23.20;68.00;;;;;;10445740;28;20017;-61
2021/07/19 03:35:36;;;;;;;5.43;4.00;;;23.20;67.80;;;;;;10460576;28;20033;-61
2021/07/19 03:40:37;;;;;;;3.80;3.22;;;23.20;67.50;;;;;;10443470;28;20045;-61
2021/07/19 03:45:38;;;;;;;3.88;2.80;;;23.20;67.40;;;;;;10462597;28;20083;-61
2021/07/19 03:50:40;;;;;;;3.88;3.03;;;23.10;67.20;;;;;;10444373;28;20067;-60
2021/07/19 03:55:44;;;;;;;5.75;3.70;;;23.10;67.50;;;;;;10461760;28;20113;-61
2021/07/19 04:00:45;;;;;;;3.60;2.92;;;23.10;67.40;;;;;;10460469;28;20422;-61
2021/07/19 04:05:58;;;;;;;4.15;3.45;;;23.10;67.20;;;;;;10442761;28;20021;-61
2021/07/19 04:11:00;;;;;;;5.60;3.60;;;23.10;67.20;;;;;;10458507;28;20458;-61
2021/07/19 04:16:00;;;;;;;5.00;2.90;;;23.10;67.10;;;;;;10443010;28;20040;-61
2021/07/19 04:21:01;;;;;;;4.35;3.03;;;23.10;67.50;;;;;;10444225;28;20029;-60
2021/07/19 04:26:02;;;;;;;4.97;3.38;;;23.10;67.20;;;;;;10442338;28;20029;-61
2021/07/19 04:31:03;;;;;;;4.75;3.40;;;23.10;67.20;;;;;;10441940;28;20108;-61
2021/07/19 04:36:04;;;;;;;4.88;3.45;;;23.00;67.40;;;;;;10458567;28;20060;-60
2021/07/19 04:41:04;;;;;;;3.97;3.40;;;23.10;67.40;;;;;;10458984;28;20493;-60
2021/07/19 04:46:05;;;;;;;5.95;3.60;;;23.00;67.60;;;;;;10459465;28;20033;-61
2021/07/19 04:51:06;;;;;;;4.32;3.40;;;23.00;67.00;;;;;;10458651;28;20059;-61
2021/07/19 04:56:07;;;;;;;3.88;3.17;;;23.00;67.10;;;;;;10441730;28;20560;-61
2021/07/19 05:01:09;;;;;;;4.18;3.13;;;23.00;67.10;;;;;;10446687;28;20087;-60
2021/07/19 05:06:11;;;;;;;5.53;3.58;;;23.00;67.10;;;;;;10458182;28;20028;-61
2021/07/19 05:11:12;;;;;;;13.60;4.20;;;23.00;67.60;;;;;;10431989;28;20025;-61
2021/07/19 05:16:13;;;;;;;10.90;3.97;;;23.10;67.90;;;;;;10460184;28;20033;-61
2021/07/19 05:21:14;;;;;;;6.75;3.75;;;23.10;68.00;;;;;;10466119;28;20060;-60
2021/07/19 05:26:15;;;;;;;5.45;3.22;;;23.10;67.90;;;;;;10440540;28;20040;-61
2021/07/19 05:31:16;;;;;;;18.30;4.47;;;23.20;68.30;;;;;;10457735;28;20013;-62
2021/07/19 05:36:17;;;;;;;11.35;3.88;;;23.20;68.50;;;;;;10457612;28;20079;-60
2021/07/19 05:41:18;;;;;;;8.20;3.47;;;23.10;68.20;;;;;;10439324;28;20045;-60
2021/07/19 05:46:18;;;;;;;14.50;4.28;;;23.10;68.50;;;;;;10457195;28;20033;-59
2021/07/19 05:51:19;;;;;;;16.50;4.18;;;23.10;68.40;;;;;;10457102;28;20024;-59
2021/07/19 05:56:20;;;;;;;9.45;4.70;;;23.10;68.10;;;;;;10456948;28;20116;-59
2021/07/19 06:01:20;;;;;;;12.75;4.10;;;23.20;68.60;;;;;;10446249;28;20145;-61
2021/07/19 06:06:21;;;;;;;12.63;4.72;;;23.20;68.60;;;;;;10417499;28;20041;-57
2021/07/19 06:11:22;;;;;;;16.33;5.05;;;23.10;68.40;;;;;;10452996;28;20048;-59
2021/07/19 06:16:22;;;;;;;18.20;5.40;;;23.10;68.30;;;;;;10438324;28;20442;-59
2021/07/19 06:21:23;;;;;;;14.98;5.00;;;23.20;68.50;;;;;;10461646;28;20485;-58
2021/07/19 06:26:24;;;;;;;21.35;4.35;;;23.10;68.40;;;;;;10452822;28;20037;-60
2021/07/19 06:31:25;;;;;;;13.93;5.15;;;23.10;68.70;;;;;;10453460;28;20021;-60
2021/07/19 06:36:26;;;;;;;12.52;4.88;;;23.10;68.80;;;;;;10454093;28;20496;-61
2021/07/19 06:41:26;;;;;;;11.75;3.97;;;23.10;68.80;;;;;;10454842;28;20053;-60
2021/07/19 06:46:27;;;;;;;8.02;4.63;;;23.10;68.80;;;;;;10455408;28;20060;-60
2021/07/19 06:51:28;;;;;;;8.20;4.15;;;23.10;68.80;;;;;;10455358;28;20108;-60
2021/07/19 06:56:31;;;;;;;9.73;4.38;;;23.10;68.80;;;;;;10455291;28;20027;-60
2021/07/19 07:01:33;;;;;;;6.38;3.90;;;23.00;68.70;;;;;;10452905;28;20041;-58
2021/07/19 07:06:35;;;;;;;8.98;4.80;;;23.00;68.60;;;;;;10437310;28;20025;-60
2021/07/19 07:11:35;;;;;;;7.90;4.90;;;23.10;68.50;;;;;;10454199;28;20021;-60
2021/07/19 07:16:36;;;;;;;7.18;3.70;;;23.00;68.50;;;;;;10436783;28;20384;-59
2021/07/19 07:21:37;;;;;;;6.00;3.95;;;23.00;68.50;;;;;;10462041;28;20056;-61
2021/07/19 07:26:37;;;;;;;6.22;4.15;;;23.00;68.50;;;;;;10436600;28;20549;-61
2021/07/19 07:31:38;;;;;;;9.77;3.97;;;23.00;68.40;;;;;;10454671;28;20104;-61
2021/07/19 07:36:40;;;;;;;5.50;3.80;;;23.00;68.40;;;;;;10454524;28;20442;-60
2021/07/19 07:41:40;;;;;;;5.45;3.95;;;23.00;68.40;;;;;;10436619;28;20059;-61
2021/07/19 07:46:43;;;;;;;7.80;4.18;;;23.00;68.40;;;;;;10454016;28;20429;-62
2021/07/19 07:51:43;;;;;;;4.88;4.18;;;23.00;68.30;;;;;;10436313;28;20029;-62
2021/07/19 07:56:44;;;;;;;5.53;3.58;;;23.00;68.40;;;;;;10453725;28;20373;-62
2021/07/19 08:01:45;;;;;;;6.38;4.18;;;23.00;68.60;;;;;;10435290;28;20033;-61
2021/07/19 08:06:46;;;;;;;6.85;3.78;;;23.00;68.50;;;;;;10452984;28;20025;-62
2021/07/19 08:11:46;;;;;;;7.30;5.18;;;23.00;68.20;;;;;;10458136;28;20029;-62
2021/07/19 08:16:47;;;;;;;7.97;4.93;;;23.00;68.00;;;;;;10460941;28;20099;-62
2021/07/19 08:21:48;;;;;;;6.05;3.95;;;23.00;68.10;;;;;;10467130;28;20106;-62
2021/07/19 08:26:49;;;;;;;6.60;4.55;;;23.00;68.00;;;;;;10460778;28;20550;-61
2021/07/19 08:31:50;;;;;;;16.15;5.05;;;23.00;68.00;;;;;;10460542;28;20032;-61
2021/07/19 08:36:51;;;;;;;5.85;4.22;;;23.00;67.90;;;;;;10460301;28;20056;-61
2021/07/19 08:41:53;;;;;;;6.10;4.25;;;23.00;68.00;;;;;;10460000;28;20378;-62
2021/07/19 08:46:53;;;;;;;6.13;4.30;;;23.00;68.00;;;;;;10442552;28;20041;-62
2021/07/19 08:51:55;;;;;;;6.78;4.75;;;23.00;68.00;;;;;;10442101;28;20060;-62
2021/07/19 08:56:56;;;;;;;6.00;4.32;;;23.00;68.00;;;;;;10441811;28;20037;-62
2021/07/19 09:02:01;;;;;;;5.88;4.25;;;23.00;67.90;;;;;;10441749;28;20389;-61
2021/07/19 09:07:03;;;;;;;6.75;4.80;;;23.00;68.00;;;;;;10441750;28;20108;-61
2021/07/19 09:12:05;;;;;;;7.82;4.45;;;23.00;67.90;;;;;;10428266;28;20039;-63
2021/07/19 09:17:06;;;;;;;6.18;4.60;;;23.00;67.90;;;;;;10458600;28;20557;-61
2021/07/19 09:22:08;;;;;;;5.40;4.50;;;23.00;68.00;;;;;;10446909;28;20025;-62
2021/07/19 09:27:20;;;;;;;5.70;4.57;;;23.00;68.00;;;;;;10458645;28;20448;-63
2021/07/19 09:32:21;;;;;;;5.38;4.03;;;23.00;67.90;;;;;;10458013;28;20029;-63
2021/07/19 09:37:26;;;;;;;6.05;3.83;;;23.00;67.90;;;;;;10458025;28;20032;-61
2021/07/19 09:42:27;;;;;;;6.22;4.65;;;23.00;67.90;;;;;;10440712;28;20052;-60
2021/07/19 09:47:41;;;;;;;6.47;4.18;;;23.00;67.90;;;;;;10422309;28;20377;-61
2021/07/19 09:52:43;;;;;;;8.93;4.47;;;23.00;68.30;;;;;;10452273;28;20036;-60
2021/07/19 09:57:56;;;;;;;9.75;4.60;;;23.10;68.50;;;;;;10456670;28;20021;-61
2021/07/19 10:02:57;;;;;;;10.45;4.50;;;23.10;68.70;;;;;;10452744;28;20465;-61
2021/07/19 10:08:02;;;;;;;6.00;3.90;;;23.10;68.70;;;;;;10456457;28;20033;-60
2021/07/19 10:13:05;;;;;;;12.25;4.82;;;23.10;68.70;;;;;;10456591;28;20424;-60
2021/07/19 10:18:09;;;;;;;7.63;5.05;;;23.20;68.80;;;;;;10456159;28;20032;-61
2021/07/19 10:23:13;;;;;;;7.40;4.35;;;23.20;68.90;;;;;;10429120;28;20052;-61
2021/07/19 10:28:15;;;;;;;10.30;5.13;;;23.20;68.90;;;;;;10456078;28;20039;-62
2021/07/19 10:33:15;;;;;;;6.57;4.70;;;23.20;68.70;;;;;;10455349;28;20021;-61
2021/07/19 10:38:22;;;;;;;7.13;4.45;;;23.20;68.80;;;;;;10455604;28;20065;-59
2021/07/19 10:43:24;;;;;;;6.88;4.68;;;23.20;68.80;;;;;;10455933;28;20366;-59
2021/07/19 10:48:31;;;;;;;9.55;5.93;;;23.20;68.60;;;;;;10455088;28;20491;-61
2021/07/19 10:53:33;;;;;;;8.43;4.85;;;23.20;68.80;;;;;;10453954;28;20056;-62
2021/07/19 10:58:48;;;;;;;7.93;4.85;;;23.20;68.90;;;;;;10431210;28;20424;-59
2021/07/19 11:03:50;;;;;;;6.82;5.07;;;23.20;69.00;;;;;;10455980;28;20033;-60
2021/07/19 11:08:50;;;;;;;7.70;4.75;;;23.20;69.70;;;;;;10446310;28;20359;-61
2021/07/19 11:14:15;;;;;;;8.23;5.53;;;23.20;69.20;;;;;;10454659;28;20029;-61
2021/07/19 11:19:36;;;;;;;9.40;4.90;;;23.20;69.30;;;;;;10454916;28;20021;-60
2021/07/19 11:24:48;;;;;;;7.20;4.53;;;23.20;69.10;;;;;;10458439;28;20037;-60
2021/07/19 11:30:01;;;;;;;10.02;5.07;;;23.30;69.10;;;;;;10454129;28;20083;-57
2021/07/19 11:35:17;;;;;;;6.70;5.18;;;23.30;69.10;;;;;;10454623;28;20048;-61
2021/07/19 11:40:47;;;;;;;9.57;5.15;;;23.30;69.10;;;;;;10452992;28;20069;-62
2021/07/19 11:45:53;;;;;;;11.90;5.45;;;23.30;68.90;;;;;;10432218;28;20041;-61
2021/07/19 11:50:58;;;;;;;7.15;5.55;;;23.30;69.10;;;;;;10443201;28;20021;-61
2021/07/19 11:56:04;;;;;;;7.13;4.85;;;23.30;69.10;;;;;;10460802;28;20051;-61
2021/07/19 12:01:05;;;;;;;9.60;5.55;;;23.30;69.10;;;;;;10460407;28;20063;-62
2021/07/19 12:06:07;;;;;;;9.25;6.38;;;23.30;69.30;;;;;;10461607;28;20024;-62
2021/07/19 12:11:12;;;;;;;8.32;6.15;;;23.30;69.10;;;;;;10461311;28;20534;-62
2021/07/19 12:16:15;;;;;;;11.50;5.63;;;23.30;69.20;;;;;;10442962;28;20486;-63
2021/07/19 12:21:19;;;;;;;8.85;5.75;;;23.30;69.20;;;;;;10467125;28;20121;-61
2021/07/19 12:26:49;;;;;;;9.63;5.68;;;23.30;69.30;;;;;;10459416;28;20033;-60
2021/07/19 12:31:55;;;;;;;;;;;23.40;69.30;;;;;;10460645;28;20389;-60
2021/07/19 12:36:57;;;;;;;11.05;5.68;;;23.30;69.20;;;;;;10459525;28;19966;-60
2021/07/19 12:42:02;;;;;;;9.15;6.90;;;23.40;69.20;;;;;;10459403;28;20068;-59
2021/07/19 12:47:04;;;;;;;7.47;5.85;;;23.40;69.10;;;;;;10460093;28;20048;-60
2021/07/19 12:52:24;;;;;;;8.07;6.10;;;23.40;69.10;;;;;;10459723;28;20470;-59
2021/07/19 12:57:33;;;;;;;9.25;6.60;;;23.40;69.00;;;;;;10459122;28;20028;-60
2021/07/19 13:02:34;;;;;;;9.00;5.43;;;23.40;68.90;;;;;;10460057;28;20025;-60
2021/07/19 13:07:36;;;;;;;7.88;5.60;;;23.40;68.90;;;;;;10459011;28;20120;-60
2021/07/19 13:12:52;;;;;;;8.23;5.60;;;23.40;68.80;;;;;;10441512;28;20043;-60
2021/07/19 13:18:09;;;;;;;8.65;6.50;;;23.40;68.70;;;;;;10442724;28;20477;-60
2021/07/19 13:23:18;;;;;;;8.68;5.95;;;23.40;68.70;;;;;;10465688;28;20037;-60
2021/07/19 13:28:23;;;;;;;7.05;5.93;;;23.40;68.80;;;;;;10440724;28;20044;-60
2021/07/19 13:33:26;;;;;;;10.15;5.85;;;23.40;68.80;;;;;;10458092;28;20090;-60
2021/07/19 13:38:41;;;;;;;8.27;5.93;;;23.50;68.80;;;;;;10440402;28;20043;-60
2021/07/19 13:43:42;;;;;;;7.90;6.60;;;23.50;68.60;;;;;;10457711;28;20029;-60
2021/07/19 13:48:42;;;;;;;6.97;5.78;;;23.50;68.70;;;;;;10439536;28;20047;-60
2021/07/19 13:53:43;;;;;;;8.65;6.72;;;23.50;68.70;;;;;;10439781;28;20049;-58
2021/07/19 13:58:44;;;;;;;7.72;5.88;;;23.40;68.50;;;;;;10457391;28;20461;-60
2021/07/19 14:03:44;;;;;;;7.72;6.10;;;23.50;68.40;;;;;;10438912;28;20100;-59
2021/07/19 14:08:45;;;;;;;6.78;5.70;;;23.40;68.50;;;;;;10456223;28;20108;-60
2021/07/19 14:13:46;;;;;;;7.85;5.63;;;23.50;68.60;;;;;;10456502;28;20500;-60
2021/07/19 14:18:46;;;;;;;8.50;5.60;;;23.40;68.30;;;;;;10456320;28;20100;-61
2021/07/19 14:23:47;;;;;;;7.53;5.63;;;23.50;68.40;;;;;;10462343;28;20466;-60
2021/07/19 14:28:48;;;;;;;6.90;5.70;;;23.50;68.40;;;;;;10438315;28;20032;-59
2021/07/19 14:33:48;;;;;;;9.40;6.20;;;23.40;68.30;;;;;;10455973;28;20039;-60
2021/07/19 14:38:50;;;;;;;8.60;6.15;;;23.50;68.20;;;;;;10455683;28;20115;-59
2021/07/19 14:43:50;;;;;;;7.05;6.13;;;23.40;68.20;;;;;;10437947;28;20025;-60
2021/07/19 14:48:51;;;;;;;7.75;6.05;;;23.40;68.20;;;;;;10455536;28;20029;-60
2021/07/19 14:53:52;;;;;;;7.43;5.75;;;23.40;68.20;;;;;;10455433;28;20056;-60
2021/07/19 14:58:52;;;;;;;8.88;6.25;;;23.40;68.10;;;;;;10455476;28;20057;-61
2021/07/19 15:03:53;;;;;;;9.93;6.53;;;23.40;68.20;;;;;;10455062;28;20025;-60
2021/07/19 15:08:54;;;;;;;9.05;6.43;;;23.40;68.20;;;;;;10455271;28;20028;-60
2021/07/19 15:13:54;;;;;;;7.97;6.05;;;23.40;68.20;;;;;;10455147;28;20050;-60
2021/07/19 15:18:55;;;;;;;7.57;6.30;;;23.40;68.10;;;;;;10457256;28;20056;-60
2021/07/19 15:23:56;;;;;;;7.43;6.38;;;23.40;68.10;;;;;;10439289;28;20513;-60
2021/07/19 15:28:56;;;;;;;8.88;6.60;;;23.40;68.00;;;;;;10462681;28;20108;-60
2021/07/19 15:33:57;;;;;;;8.70;6.80;;;23.40;68.00;;;;;;10463139;28;20029;-61
2021/07/19 15:38:58;;;;;;;7.50;6.32;;;23.40;68.00;;;;;;10444355;28;20396;-63
2021/07/19 15:43:59;;;;;;;8.32;6.90;;;23.40;68.10;;;;;;10462606;28;20036;-60
2021/07/19 15:49:01;;;;;;;11.25;6.60;;;23.50;68.20;;;;;;10460808;28;20032;-58
2021/07/19 15:54:02;;;;;;;10.35;7.00;;;23.40;68.10;;;;;;10462212;28;20056;-58
2021/07/19 15:59:04;;;;;;;10.65;7.68;;;23.40;67.90;;;;;;10461745;28;20032;-59
2021/07/19 16:04:05;;;;;;;9.02;7.05;;;23.40;67.80;;;;;;10461388;28;20032;-58
2021/07/19 16:09:05;;;;;;;20.75;8.48;;;23.40;67.70;;;;;;10461220;28;20067;-59
2021/07/19 16:14:06;;;;;;;15.10;7.78;;;23.40;67.70;;;;;;10461384;28;20029;-57
2021/07/19 16:19:14;;;;;;;15.18;8.73;;;23.50;67.70;;;;;;10461076;28;20374;-58
2021/07/19 16:24:14;;;;;;;21.38;11.35;;;23.50;67.70;;;;;;10454424;28;20033;-59
2021/07/19 16:29:15;;;;;;;22.35;12.50;;;23.60;70.90;;;;;;10459683;28;20022;-59
2021/07/19 16:34:16;;;;;;;21.77;11.73;;;23.70;70.40;;;;;;10459966;28;20082;-58
2021/07/19 16:39:16;;;;;;;16.80;9.75;;;23.70;68.10;;;;;;10459506;28;20119;-57
2021/07/19 16:44:20;;;;;;;15.30;10.55;;;23.70;67.70;;;;;;10460088;28;20064;-58
2021/07/19 16:49:21;;;;;;;19.35;9.90;;;23.80;67.20;;;;;;10442341;28;20048;-59
2021/07/19 16:54:22;;;;;;;13.90;9.32;;;23.80;66.40;;;;;;10459122;28;20068;-59
2021/07/19 16:59:23;;;;;;;12.20;8.93;;;23.80;66.40;;;;;;10459399;28;20033;-59
2021/07/19 17:04:23;;;;;;;14.45;8.77;;;23.80;65.90;;;;;;10458667;28;20106;-59
2021/07/19 17:09:24;;;;;;;11.20;8.25;;;23.80;65.60;;;;;;10445525;28;20033;-59
2021/07/19 17:14:25;;;;;;;12.38;9.30;;;23.80;65.50;;;;;;10458788;28;20040;-59
2021/07/19 17:19:26;;;;;;;11.85;9.13;;;23.80;65.20;;;;;;10460571;28;20035;-59
2021/07/19 17:24:27;;;;;;;13.43;9.27;;;23.80;64.80;;;;;;10462362;28;20033;-61
2021/07/19 17:29:28;;;;;;;11.10;8.10;;;23.90;64.90;;;;;;10457289;28;20114;-60
2021/07/19 17:34:29;;;;;;;11.77;8.93;;;23.90;65.20;;;;;;10457277;28;20056;-61
2021/07/19 17:39:29;;;;;;;15.52;8.73;;;23.90;64.80;;;;;;10447458;28;20052;-61
2021/07/19 17:44:30;;;;;;;9.82;7.85;;;23.90;65.70;;;;;;10456856;28;20495;-61
2021/07/19 17:49:31;;;;;;;13.57;9.05;;;23.90;65.80;;;;;;10456709;28;20036;-62
2021/07/19 17:54:32;;;;;;;11.80;10.27;;;23.90;65.50;;;;;;10455659;28;20104;-60
2021/07/19 17:59:34;;;;;;;11.73;8.93;;;23.90;65.70;;;;;;10456104;28;20049;-56
2021/07/19 18:04:36;;;;;;;14.63;9.93;;;23.90;66.30;;;;;;10455268;28;20021;-54
2021/07/19 18:09:37;;;;;;;12.80;8.82;;;23.90;66.70;;;;;;10455248;28;20045;-56
2021/07/19 18:14:37;;;;;;;11.18;8.50;;;23.90;66.60;;;;;;10455738;28;20100;-57
2021/07/19 18:19:38;;;;;;;15.55;9.10;;;24.00;66.70;;;;;;10455636;28;20447;-56
2021/07/19 18:35:06;;;;;;;11.95;9.77;;;24.00;66.60;;;;;;10454440;28;20033;-61
2021/07/19 18:40:08;;;;;;;14.75;9.95;;;24.10;67.10;;;;;;10455382;28;20044;-61
2021/07/19 18:45:11;;;;;;;13.05;10.85;;;24.00;67.30;;;;;;10455630;28;20033;-61
2021/07/19 18:50:13;;;;;;;14.52;12.18;;;24.00;67.40;;;;;;10437960;28;20040;-61
2021/07/19 18:55:15;;;;;;;14.68;10.98;;;24.00;67.70;;;;;;10454042;28;20056;-58
2021/07/19 19:00:20;;;;;;;15.23;13.15;;;24.10;67.40;;;;;;10454723;28;20028;-59
2021/07/19 19:05:21;;;;;;;19.30;15.82;;;24.10;67.90;;;;;;10437240;28;20025;-61
2021/07/19 19:10:22;;;;;;;16.63;13.73;;;24.10;67.60;;;;;;10453355;28;20013;-61
2021/07/19 19:15:25;;;;;;;14.90;13.23;;;24.10;67.50;;;;;;10455093;28;20116;-61
2021/07/19 19:20:29;;;;;;;13.43;11.70;;;24.10;67.40;;;;;;10459114;28;20116;-61
2021/07/19 19:25:31;;;;;;;16.02;12.55;;;24.10;67.30;;;;;;10453840;28;20029;-61
2021/07/19 19:30:34;;;;;;;13.40;11.93;;;24.00;67.30;;;;;;10452922;28;20032;-61
2021/07/19 19:35:35;;;;;;;15.70;11.23;;;24.00;67.30;;;;;;10453604;28;20060;-59
2021/07/19 19:40:35;;;;;;;19.67;11.23;;;24.00;67.00;;;;;;10454399;28;20043;-61
2021/07/19 19:45:36;;;;;;;22.48;11.15;;;24.00;66.70;;;;;;10454204;28;20059;-61
2021/07/19 19:50:37;;;;;;;17.42;11.38;;;24.00;66.80;;;;;;10454178;28;20100;-62
2021/07/19 19:55:38;;;;;;;15.10;11.15;;;24.00;66.80;;;;;;10437463;28;20040;-59
2021/07/19 20:00:39;;;;;;;14.40;8.70;;;24.00;67.00;;;;;;10436547;28;20478;-60
2021/07/19 20:05:41;;;;;;;18.77;9.80;;;24.00;66.10;;;;;;10456550;28;20029;-60
2021/07/19 20:10:42;;;;;;;13.75;9.38;;;24.00;66.70;;;;;;10459939;28;20033;-58
2021/07/19 20:15:43;;;;;;;15.45;8.98;;;24.00;66.90;;;;;;10459644;28;20365;-60
2021/07/19 20:20:45;;;;;;;12.10;8.80;;;23.90;66.90;;;;;;10460096;28;20032;-59
2021/07/19 20:25:46;;;;;;;13.15;8.95;;;23.90;67.00;;;;;;10458429;28;20036;-60
2021/07/19 20:30:47;;;;;;;10.82;8.40;;;23.90;67.00;;;;;;10459405;28;20025;-60
2021/07/19 20:35:48;;;;;;;12.85;9.40;;;23.90;67.00;;;;;;10459097;28;20424;-60
2021/07/19 20:40:49;;;;;;;13.63;8.88;;;23.80;67.00;;;;;;10458292;28;20086;-60
2021/07/19 20:45:50;;;;;;;12.18;8.02;;;23.80;66.90;;;;;;10458251;28;20039;-60
2021/07/19 20:50:55;;;;;;;13.35;8.07;;;23.80;67.50;;;;;;10459873;28;20531;-60
2021/07/19 20:55:58;;;;;;;12.02;8.23;;;23.80;66.80;;;;;;10460031;28;20115;-60
2021/07/19 21:00:59;;;;;;;10.60;8.05;;;23.70;66.60;;;;;;10459570;28;20037;-60
2021/07/19 21:06:00;;;;;;;11.73;9.27;;;23.70;66.60;;;;;;10458926;28;20040;-60
2021/07/19 21:11:01;;;;;;;10.30;8.55;;;23.70;66.60;;;;;;10459308;28;20100;-60
2021/07/19 21:16:02;;;;;;;10.45;8.43;;;23.70;66.50;;;;;;10439226;28;20171;-60
2021/07/19 21:21:03;;;;;;;10.48;8.38;;;23.70;66.50;;;;;;10448542;28;20029;-60
2021/07/19 21:26:04;;;;;;;9.30;7.35;;;23.70;66.30;;;;;;10458023;28;20037;-60
2021/07/19 21:31:05;;;;;;;11.48;8.25;;;23.70;66.30;;;;;;10458037;28;20473;-60
2021/07/19 21:36:05;;;;;;;10.00;8.23;;;23.70;66.20;;;;;;10457631;28;20041;-60
2021/07/19 21:41:06;;;;;;;9.02;7.47;;;23.60;66.10;;;;;;10440051;28;20045;-60
2021/07/19 21:46:07;;;;;;;11.60;7.60;;;23.60;66.10;;;;;;10457198;28;20037;-59
2021/07/19 21:51:07;;;;;;;9.43;6.82;;;23.60;65.90;;;;;;10457573;28;20025;-59
2021/07/19 21:56:08;;;;;;;11.77;8.00;;;23.60;65.90;;;;;;10457248;28;20029;-60
2021/07/19 22:01:09;;;;;;;9.63;7.15;;;23.50;65.60;;;;;;10457023;28;20136;-60
2021/07/19 22:06:10;;;;;;;10.50;8.18;;;23.60;65.70;;;;;;10456436;28;20044;-60
2021/07/19 22:11:11;;;;;;;8.75;7.43;;;23.60;65.70;;;;;;10456601;28;20037;-60
2021/07/19 22:16:12;;;;;;;10.73;7.75;;;23.60;65.50;;;;;;10456635;28;20032;-60
2021/07/19 22:21:12;;;;;;;10.40;7.65;;;23.60;65.40;;;;;;10437417;28;20127;-60
2021/07/19 22:26:13;;;;;;;8.50;7.03;;;23.50;65.20;;;;;;10455882;28;20033;-60
2021/07/19 22:31:14;;;;;;;9.93;7.55;;;23.50;65.20;;;;;;10439702;28;20116;-60
2021/07/19 22:36:15;;;;;;;9.63;7.70;;;23.50;65.20;;;;;;10455780;28;20104;-60
2021/07/19 22:41:17;;;;;;;9.48;7.78;;;23.50;65.10;;;;;;10455461;28;20053;-60
2021/07/19 22:46:18;;;;;;;10.13;7.60;;;23.50;65.10;;;;;;10437748;28;20043;-60
2021/07/19 22:51:18;;;;;;;9.43;7.68;;;23.50;65.00;;;;;;10455173;28;20029;-60
2021/07/19 22:56:19;;;;;;;10.85;7.43;;;23.50;64.90;;;;;;10455189;28;20061;-60
2021/07/19 23:01:20;;;;;;;9.18;7.57;;;23.50;64.80;;;;;;10455158;28;20107;-59
2021/07/19 23:06:21;;;;;;;10.95;8.25;;;23.40;64.80;;;;;;10446107;28;20040;-60
2021/07/19 23:11:21;;;;;;;9.55;7.13;;;23.40;64.60;;;;;;10454762;28;20025;-59
2021/07/19 23:16:22;;;;;;;8.85;7.72;;;23.40;64.50;;;;;;10437276;28;20036;-60
2021/07/19 23:21:23;;;;;;;11.73;8.10;;;23.40;64.50;;;;;;10462574;28;20025;-60
2021/07/19 23:26:24;;;;;;;9.27;8.13;;;23.40;64.30;;;;;;10454601;28;20037;-60
2021/07/19 23:31:24;;;;;;;8.98;7.40;;;23.40;64.40;;;;;;10454252;28;20104;-60
2021/07/19 23:36:25;;;;;;;9.20;7.93;;;23.40;64.30;;;;;;10454726;28;20033;-60
2021/07/19 23:41:26;;;;;;;11.23;7.28;;;23.40;64.20;;;;;;10444262;28;20155;-60
2021/07/19 23:46:27;;;;;;;8.32;7.13;;;23.30;64.00;;;;;;10462553;28;20033;-60
2021/07/19 23:51:29;;;;;;;9.07;7.32;;;23.30;63.90;;;;;;10462374;28;20063;-60
2021/07/19 23:56:29;;;;;;;9.48;8.13;;;23.30;64.00;;;;;;10462342;28;20432;-60
